Hovedside
METAR-TAF:

METAR-TAF

Lufthavner :

Ängelholm-Helsingborg lufthavn

Helsingborg, Sverige

breddegrad: 56-17-46N, lengdegrad: 012-50-50E, høyde over havet: 21 m

Gjeldene værobservasjon

Denne rapporten ble laget for 20 minutter siden, klokken 12:20 UTC
Vind 10 kt fra Vest-nordvest
Temperatur 5°C
Luftfuktighet 75%
Trykk 1010 hPa
Sikt 10 km eller mer
Få skyer i en høyde av 1700 ft
Spredte skyer i en høyde av 2500 ft

METAR: ESTA 241220Z 30010KT 9999 FEW017 SCT025 05/01 Q1010

Tid: 13:40 (12:40 UTC)

Varsel

Denne rapporten ble laget for 1 time og 33 minutter siden, klokken 11:07 UTC
Varsel gyldig fra 24. klokken 12 UTC til 24. klokken 21 UTC
Vind 12 kt fra Vest
Sikt 10 km eller mer
Få skyer i en høyde av 2500 ft
Blir
fra 24. klokken 18 UTC til 24. klokken 21 UTC
Vind 12 kt fra Sørøst

TAF: ESTA 241107Z 2412/2421 26012KT 9999 FEW025 BECMG 2418/2421 13012KT

Værobservasjoner og værvarsel for over 4000 flyplasser (METAR- og TAF-rapporter).

Tilgjengelige stasjoner er representert av de røde og gule prikkene på kartet.

Hold musepekeren over prikken for å se navnet på stasjonen.

Klikk så for å se værobservasjoner og -varsler.

For å forandre kartet kan du klikke på den grønne knappen med svart kryss for å zoome inn, på den grønne knappen med strek for å zoome ut, eller på de grønne pilene for å se tilstøtende kart.


METAR-TAF: